Time;durP1;ratioP1;P1;durP2;ratioP2;P2;SDS_P1;SDS_P2;PMS_P1;PMS_P2;Temp;Humidity;BMP_temperature;BMP_pressure;BME280_temperature;BME280_humidity;BME280_pressure;Samples;Min_cycle;Max_cycle;Signal;HPM_P1;HPM_P2
2022/08/20 00:00:26;;;;;;;16.55;9.77;;;;;;;20.21;89.53;101457.03;5054879;28;20393;-78
2022/08/20 00:02:55;;;;;;;13.20;9.85;;;;;;;20.17;89.69;101467.81;5073044;28;20024;-78
2022/08/20 00:05:26;;;;;;;15.07;9.07;;;;;;;20.21;88.94;101459.69;5072935;28;20375;-79
2022/08/20 00:07:52;;;;;;;15.07;9.83;;;;;;;20.29;88.63;101462.22;5072907;28;20042;-78
2022/08/20 00:10:18;;;;;;;14.93;10.50;;;;;;;20.30;88.62;101464.00;5072536;28;20295;-79
2022/08/20 00:12:47;;;;;;;20.17;10.07;;;;;;;20.36;88.52;101455.81;5072918;28;20486;-78
2022/08/20 00:15:14;;;;;;;16.50;10.32;;;;;;;20.38;88.41;101455.78;5072772;28;20040;-79
2022/08/20 00:17:40;;;;;;;12.07;9.05;;;;;;;20.44;87.87;101450.31;5054641;28;20025;-79
2022/08/20 00:20:10;;;;;;;12.23;9.63;;;;;;;20.46;87.78;101456.50;5073407;28;20025;-79
2022/08/20 00:22:36;;;;;;;15.13;9.65;;;;;;;20.47;87.78;101450.22;5073087;28;20563;-79
2022/08/20 00:25:05;;;;;;;11.70;9.20;;;;;;;20.49;87.56;101441.25;5073966;28;20041;-79
2022/08/20 00:27:30;;;;;;;17.17;9.52;;;;;;;20.44;87.57;101440.44;5076709;28;20033;-79
2022/08/20 00:29:56;;;;;;;12.23;9.50;;;;;;;20.46;87.46;101438.59;5077383;28;20378;-79
2022/08/20 00:32:21;;;;;;;13.52;9.50;;;;;;;20.54;87.73;101442.97;5077142;28;20390;-79
2022/08/20 00:34:47;;;;;;;14.10;10.10;;;;;;;20.53;87.50;101443.88;5076641;28;20032;-79
2022/08/20 00:37:13;;;;;;;15.05;9.45;;;;;;;20.52;87.06;101432.28;5058462;28;20032;-79
2022/08/20 00:39:38;;;;;;;12.95;9.35;;;;;;;20.55;87.16;101432.19;5076189;28;20024;-79
2022/08/20 00:42:04;;;;;;;14.13;9.77;;;;;;;20.56;87.17;101435.78;5058351;28;20028;-79
2022/08/20 00:44:30;;;;;;;11.15;9.32;;;;;;;20.64;87.08;101452.59;5076178;28;20039;-79
2022/08/20 00:46:55;;;;;;;11.90;9.18;;;;;;;20.65;87.13;101454.38;5076094;28;20036;-79
2022/08/20 00:49:24;;;;;;;13.75;9.98;;;;;;;20.40;87.94;101449.47;5075789;28;20055;-79
2022/08/20 00:51:57;;;;;;;14.23;10.30;;;;;;;20.41;88.46;101451.22;5076098;28;20039;-80
2022/08/20 00:54:32;;;;;;;17.15;9.88;;;;;;;20.46;88.58;101451.13;5076142;28;20382;-79
2022/08/20 00:57:07;;;;;;;12.25;10.07;;;;;;;20.49;88.31;101452.00;5075896;28;20060;-80
2022/08/20 00:59:36;;;;;;;14.52;10.02;;;;;;;20.48;88.24;101450.25;5075676;28;20428;-79
2022/08/20 01:02:04;;;;;;;15.00;10.25;;;;;;;20.54;88.33;101453.72;5057909;28;20067;-79
2022/08/20 01:04:32;;;;;;;15.35;11.13;;;;;;;20.46;88.15;101451.13;5075992;28;20077;-79
2022/08/20 01:06:58;;;;;;;14.15;10.75;;;;;;;20.53;88.25;101454.63;5075754;28;20079;-79
2022/08/20 01:09:24;;;;;;;15.55;10.30;;;;;;;20.45;88.34;101441.31;5075860;28;20052;-80
2022/08/20 01:11:50;;;;;;;16.98;10.75;;;;;;;20.52;88.12;101450.19;5075915;28;20029;-79
2022/08/20 01:14:38;;;;;;;13.38;9.93;;;;;;;20.45;88.33;101438.63;5057860;28;20040;-80
2022/08/20 01:17:07;;;;;;;16.13;10.20;;;;;;;20.56;88.11;101441.16;5075710;28;20033;-79
2022/08/20 01:19:40;;;;;;;16.50;9.90;;;;;;;20.55;88.07;101437.56;5075577;28;20028;-79
2022/08/20 01:25:00;;;;;;;13.57;9.98;;;;;;;20.68;87.38;101448.91;5075597;28;20043;-79
2022/08/20 01:27:26;;;;;;;13.10;9.60;;;;;;;20.64;87.29;101445.44;5075486;28;20032;-79
2022/08/20 01:29:51;;;;;;;12.63;9.52;;;;;;;20.68;86.93;101454.28;5075170;28;20378;-80
2022/08/20 01:32:17;;;;;;;13.07;8.80;;;;;;;20.50;86.69;101420.66;5075353;28;20485;-79
2022/08/20 01:34:42;;;;;;;10.02;7.78;;;;;;;20.57;85.64;101441.09;5075123;28;20067;-79
2022/08/20 01:37:08;;;;;;;10.20;8.05;;;;;;;20.61;86.84;101448.19;5074438;28;20062;-79
2022/08/20 01:39:36;;;;;;;13.55;9.75;;;;;;;20.56;87.45;101443.84;5075187;28;20036;-79
2022/08/20 01:42:04;;;;;;;13.07;8.18;;;;;;;20.59;86.94;101449.13;5075175;28;20043;-79
2022/08/20 01:44:30;;;;;;;12.63;9.02;;;;;;;20.52;87.19;101448.38;5074868;28;20029;-79
2022/08/20 01:46:56;;;;;;;16.80;9.70;;;;;;;20.40;87.56;101435.16;5074927;28;20033;-79
2022/08/20 01:49:33;;;;;;;13.65;10.10;;;;;;;20.46;87.49;101446.66;5074808;28;20404;-79
2022/08/20 01:52:04;;;;;;;13.85;10.20;;;;;;;20.47;87.35;101445.75;5075101;28;20107;-78
2022/08/20 01:54:31;;;;;;;13.85;10.50;;;;;;;20.46;87.69;101457.38;5074990;28;20021;-79
2022/08/20 01:56:59;;;;;;;14.75;10.43;;;;;;;20.46;87.52;101452.03;5057012;28;20033;-79
2022/08/20 01:59:25;;;;;;;14.82;10.25;;;;;;;20.40;86.99;101440.53;5074767;28;20028;-79
2022/08/20 02:01:51;;;;;;;19.95;11.05;;;;;;;20.43;87.45;101445.84;5074791;28;20032;-79
2022/08/20 02:04:18;;;;;;;14.30;10.77;;;;;;;20.44;87.54;101453.00;5074646;28;20033;-79
2022/08/20 02:06:47;;;;;;;16.27;10.90;;;;;;;20.39;87.97;101453.09;5074257;28;20033;-79
2022/08/20 02:09:13;;;;;;;13.68;9.02;;;;;;;20.41;86.57;101447.66;5074435;28;20083;-79
2022/08/20 02:11:39;;;;;;;16.30;10.63;;;;;;;20.34;87.51;101441.56;5056543;28;20033;-79
2022/08/20 02:14:07;;;;;;;15.15;10.63;;;;;;;20.45;86.86;101452.06;5074286;28;20064;-79
2022/08/20 02:16:36;;;;;;;15.05;10.82;;;;;;;20.48;87.47;101450.25;5074196;28;20032;-79
2022/08/20 02:19:11;;;;;;;16.80;10.52;;;;;;;20.44;87.23;101444.94;5074352;28;20103;-79
2022/08/20 02:21:43;;;;;;;18.45;10.63;;;;;;;20.40;86.82;101443.22;5056644;28;20028;-79
2022/08/20 02:24:09;;;;;;;;;;;;;;;20.56;85.63;101454.56;5074630;28;20039;-79
2022/08/20 02:26:36;;;;;;;15.70;10.60;;;;;;;20.39;86.75;101449.50;5074359;28;19908;-79
2022/08/20 02:29:05;;;;;;;19.50;10.82;;;;;;;20.37;86.98;101454.91;5074083;28;20040;-79
2022/08/20 02:31:31;;;;;;;14.43;9.57;;;;;;;20.36;86.76;101455.81;5073803;28;20523;-79
2022/08/20 02:33:56;;;;;;;16.70;11.02;;;;;;;20.31;86.90;101449.66;5073932;28;20531;-80
2022/08/20 02:36:22;;;;;;;20.95;11.57;;;;;;;20.25;87.35;101450.66;5073499;28;20028;-79
2022/08/20 02:38:47;;;;;;;19.17;11.30;;;;;;;20.24;87.42;101454.25;5074006;28;20103;-79
2022/08/20 02:41:14;;;;;;;20.58;11.40;;;;;;;20.19;87.51;101455.25;5073980;28;20032;-79
2022/08/20 02:43:39;;;;;;;14.48;9.63;;;;;;;20.15;87.14;101456.25;5056027;28;20036;-79
2022/08/20 02:46:06;;;;;;;15.20;10.15;;;;;;;20.12;86.74;101449.13;5073556;28;20085;-79
2022/08/20 02:48:32;;;;;;;20.45;11.98;;;;;;;20.15;87.74;101465.16;5073269;28;20032;-79
2022/08/20 02:51:04;;;;;;;23.27;13.88;;;;;;;19.99;88.65;101453.81;5073600;28;20075;-80
2022/08/20 02:53:32;;;;;;;23.50;13.48;;;;;;;20.00;88.20;101471.72;5073647;28;20040;-79
2022/08/20 02:55:59;;;;;;;21.42;13.50;;;;;;;19.97;88.66;101462.84;5073505;28;20543;-80
2022/08/20 02:58:25;;;;;;;21.55;11.57;;;;;;;20.00;88.14;101463.66;5073636;28;20033;-79
2022/08/20 03:00:50;;;;;;;30.52;15.40;;;;;;;19.96;88.60;101472.69;5073994;28;20081;-80
2022/08/20 03:03:21;;;;;;;22.88;13.23;;;;;;;20.01;87.55;101467.22;5073887;28;20047;-79
2022/08/20 03:05:47;;;;;;;22.52;15.25;;;;;;;20.08;88.24;101470.66;5073585;28;20035;-79
2022/08/20 03:08:13;;;;;;;24.38;14.50;;;;;;;20.00;87.76;101473.53;5073187;28;20078;-79
2022/08/20 03:10:41;;;;;;;26.08;15.73;;;;;;;19.92;87.79;101462.94;5073176;28;20048;-79
2022/08/20 03:13:11;;;;;;;29.85;16.90;;;;;;;19.78;88.77;101454.22;5073228;28;20067;-79
2022/08/20 03:15:38;;;;;;;29.20;16.83;;;;;;;19.81;88.70;101461.34;5073485;28;20028;-79
2022/08/20 03:18:03;;;;;;;23.67;16.58;;;;;;;19.86;88.01;101470.19;5073183;28;20032;-79
2022/08/20 03:20:30;;;;;;;29.70;17.95;;;;;;;19.85;87.87;101473.78;5073385;28;20036;-80
2022/08/20 03:22:55;;;;;;;29.85;18.00;;;;;;;19.75;88.04;101463.22;5073444;28;20032;-80
2022/08/20 03:25:21;;;;;;;31.08;19.15;;;;;;;19.76;88.81;101469.47;5073493;28;20397;-80
2022/08/20 03:27:46;;;;;;;34.15;19.95;;;;;;;19.74;88.78;101468.59;5073039;28;20029;-79
2022/08/20 03:30:14;;;;;;;25.60;17.67;;;;;;;19.72;89.08;101457.91;5073161;28;20446;-80
2022/08/20 03:32:40;;;;;;;30.25;18.92;;;;;;;19.76;88.96;101464.97;5073252;28;20032;-79
2022/08/20 03:35:08;;;;;;;33.40;19.20;;;;;;;19.70;88.73;101459.75;5073186;28;20052;-79
2022/08/20 03:37:35;;;;;;;32.38;19.05;;;;;;;19.68;88.79;101461.53;5072940;28;20032;-79
2022/08/20 03:40:02;;;;;;;29.10;19.08;;;;;;;19.68;88.69;101466.03;5073017;28;20121;-79
2022/08/20 03:42:27;;;;;;;32.53;19.85;;;;;;;19.66;88.67;101463.38;5073099;28;20028;-80
2022/08/20 03:44:53;;;;;;;33.30;19.77;;;;;;;19.69;88.89;101475.84;5072956;28;20440;-79
2022/08/20 03:47:19;;;;;;;32.30;18.98;;;;;;;19.66;88.77;101465.19;5072968;28;20131;-79
2022/08/20 03:49:45;;;;;;;28.80;18.98;;;;;;;19.63;88.75;101466.09;5073182;28;20036;-79
2022/08/20 03:52:10;;;;;;;28.48;18.58;;;;;;;19.73;88.88;101480.22;5073012;28;20412;-79
2022/08/20 03:54:36;;;;;;;29.27;18.63;;;;;;;19.70;89.43;101481.19;5072933;28;20033;-80
2022/08/20 03:57:01;;;;;;;28.42;18.70;;;;;;;19.68;88.83;101474.94;5072678;28;20043;-79
2022/08/20 03:59:27;;;;;;;31.00;19.50;;;;;;;19.70;89.19;101477.63;5074440;28;20115;-80
2022/08/20 04:01:53;;;;;;;34.47;19.25;;;;;;;19.64;89.00;101483.06;5076986;28;20078;-80
2022/08/20 04:04:19;;;;;;;32.60;19.40;;;;;;;19.61;89.04;101477.75;5076878;28;20088;-80
2022/08/20 04:06:46;;;;;;;29.38;20.23;;;;;;;19.55;89.66;101478.72;5076649;28;20063;-79
2022/08/20 04:09:13;;;;;;;34.97;20.70;;;;;;;19.52;89.32;101486.78;5076356;28;20036;-79
2022/08/20 04:11:42;;;;;;;33.42;19.67;;;;;;;19.43;89.48;101486.94;5076743;28;20036;-80
2022/08/20 04:14:09;;;;;;;30.17;19.45;;;;;;;19.45;88.66;101483.34;5076583;28;20037;-80
2022/08/20 04:16:36;;;;;;;30.30;19.42;;;;;;;19.48;88.65;101487.75;5076766;28;20028;-79
2022/08/20 04:19:02;;;;;;;29.23;18.60;;;;;;;19.46;88.14;101492.28;5059030;28;20036;-79
2022/08/20 04:21:32;;;;;;;34.85;19.23;;;;;;;19.47;88.18;101492.22;5076862;28;20193;-80
2022/08/20 04:23:57;;;;;;;30.40;19.17;;;;;;;19.45;88.07;101496.75;5076358;28;20036;-80
2022/08/20 04:26:23;;;;;;;29.90;18.10;;;;;;;19.42;88.24;101494.09;5076370;28;20052;-79
2022/08/20 04:28:51;;;;;;;30.77;18.90;;;;;;;19.38;88.39;101507.59;5076473;28;20466;-79
2022/08/20 04:31:17;;;;;;;29.55;17.58;;;;;;;19.32;88.30;101491.59;5058179;28;20028;-80
2022/08/20 04:33:43;;;;;;;31.50;18.13;;;;;;;19.30;88.16;101496.09;5076388;28;20035;-79
2022/08/20 04:36:08;;;;;;;35.00;17.73;;;;;;;19.22;87.79;101491.72;5076442;28;20025;-79
2022/08/20 04:38:34;;;;;;;28.15;16.92;;;;;;;19.26;88.05;101498.81;5076019;28;20371;-79
2022/08/20 04:41:00;;;;;;;31.08;17.52;;;;;;;19.29;88.04;101507.72;5076334;28;20040;-79
2022/08/20 04:43:32;;;;;;;34.53;18.00;;;;;;;19.23;87.74;101512.25;5075966;28;20039;-79
2022/08/20 04:45:59;;;;;;;;;;;;;;;19.35;86.85;101515.66;5076422;28;20060;-80
2022/08/20 04:48:27;;;;;;;25.27;14.02;;;;;;;19.16;87.00;101498.97;5075773;28;19908;-79
2022/08/20 04:50:53;;;;;;;26.35;15.43;;;;;;;19.20;87.05;101530.19;5075654;28;20029;-80
2022/08/20 04:53:21;;;;;;;31.35;14.07;;;;;;;19.13;87.09;101518.66;5075793;28;20078;-79
2022/08/20 04:55:47;;;;;;;29.52;15.48;;;;;;;19.14;87.50;101522.19;5075861;28;20039;-79
2022/08/20 04:58:17;;;;;;;29.05;15.40;;;;;;;19.16;87.63;101534.69;5075709;28;20474;-79
2022/08/20 05:00:54;;;;;;;29.48;14.48;;;;;;;19.09;87.35;101522.28;5075775;28;20024;-79
2022/08/20 05:03:20;;;;;;;28.40;14.85;;;;;;;19.13;87.08;101534.72;5075951;28;20017;-80
2022/08/20 05:05:46;;;;;;;25.90;16.33;;;;;;;19.00;87.54;101523.28;5075344;28;20059;-80
2022/08/20 05:08:12;;;;;;;27.83;15.73;;;;;;;19.07;87.80;101532.13;5057877;28;20399;-79
2022/08/20 05:10:39;;;;;;;24.98;16.00;;;;;;;19.07;87.36;101528.56;5074547;28;20044;-80
2022/08/20 05:13:06;;;;;;;30.88;17.60;;;;;;;19.16;87.71;101553.44;5075300;28;20054;-79
2022/08/20 05:15:31;;;;;;;31.27;16.10;;;;;;;19.06;87.44;101541.09;5075077;28;20028;-79
2022/08/20 05:18:06;;;;;;;34.22;18.55;;;;;;;19.12;87.36;101545.47;5075315;28;20386;-80
2022/08/20 05:20:38;;;;;;;32.92;18.70;;;;;;;19.03;87.52;101535.75;5075216;28;20033;-79
2022/08/20 05:23:05;;;;;;;31.38;18.60;;;;;;;19.02;87.45;101531.31;5074898;28;20390;-79
2022/08/20 05:25:31;;;;;;;35.25;19.67;;;;;;;19.06;87.62;101538.41;5075185;28;20029;-79
2022/08/20 05:28:02;;;;;;;30.73;19.90;;;;;;;19.10;87.32;101548.19;5075147;28;20039;-79
2022/08/20 05:30:32;;;;;;;38.38;20.83;;;;;;;18.98;87.86;101530.47;5074696;28;20032;-80
2022/08/20 05:33:02;;;;;;;35.45;21.60;;;;;;;19.05;88.25;101551.81;5074616;28;20055;-79
2022/08/20 05:35:28;;;;;;;36.10;22.42;;;;;;;19.02;88.04;101539.34;5074964;28;20028;-79
2022/08/20 05:37:54;;;;;;;41.13;23.02;;;;;;;19.00;88.16;101547.38;5074524;28;20101;-80
2022/08/20 05:40:21;;;;;;;38.55;21.98;;;;;;;19.14;87.81;101562.38;5056755;28;20073;-79
2022/08/20 05:42:47;;;;;;;33.38;21.50;;;;;;;19.11;87.81;101546.38;5074389;28;20032;-80
2022/08/20 05:45:12;;;;;;;37.17;23.70;;;;;;;19.10;88.09;101553.53;5074391;28;20036;-79
2022/08/20 05:47:39;;;;;;;38.15;24.75;;;;;;;19.11;88.10;101554.41;5074234;28;20041;-80
2022/08/20 05:50:08;;;;;;;35.88;24.13;;;;;;;19.15;87.52;101551.69;5074818;28;20067;-79
2022/08/20 05:52:33;;;;;;;39.78;24.33;;;;;;;19.22;87.33;101557.81;5074333;28;20028;-79
2022/08/20 05:54:58;;;;;;;44.17;26.58;;;;;;;19.18;87.77;101565.00;5074563;28;20040;-80
2022/08/20 05:57:24;;;;;;;38.30;25.85;;;;;;;19.12;87.94;101553.50;5074097;28;20027;-79
2022/08/20 05:59:49;;;;;;;35.08;24.20;;;;;;;19.15;87.66;101553.47;5074178;28;20488;-79
2022/08/20 06:04:58;;;;;;;36.95;24.88;;;;;;;19.22;87.59;101558.69;5074546;28;20512;-80
2022/08/20 06:07:24;;;;;;;40.20;24.65;;;;;;;19.19;87.65;101569.47;5074031;28;20063;-80
2022/08/20 06:09:49;;;;;;;41.00;24.08;;;;;;;19.21;87.76;101574.81;5073543;28;20055;-80
2022/08/20 06:12:16;;;;;;;39.95;25.30;;;;;;;19.06;88.01;101550.88;5074055;28;20039;-80
2022/08/20 06:14:42;;;;;;;46.08;24.20;;;;;;;19.14;87.49;101573.09;5073900;28;20044;-80
2022/08/20 06:17:14;;;;;;;41.83;24.63;;;;;;;19.15;88.01;101580.25;5074141;28;20032;-79
2022/08/20 06:19:41;;;;;;;41.42;23.65;;;;;;;19.14;88.20;101582.06;5073753;28;20112;-80
2022/08/20 06:22:06;;;;;;;42.45;26.02;;;;;;;19.06;87.95;101575.00;5073435;28;20028;-79
2022/08/20 06:24:32;;;;;;;42.08;24.63;;;;;;;19.13;87.75;101579.38;5055387;28;20375;-79
2022/08/20 06:26:59;;;;;;;40.38;25.15;;;;;;;19.06;87.92;101575.00;5073950;28;20064;-79
2022/08/20 06:29:25;;;;;;;38.22;25.17;;;;;;;19.08;88.60;101571.41;5073874;28;20097;-80
2022/08/20 06:31:51;;;;;;;44.15;26.08;;;;;;;19.07;88.46;101574.13;5073663;28;20033;-80
2022/08/20 06:34:17;;;;;;;41.58;24.33;;;;;;;19.05;88.83;101571.44;5073704;28;20039;-80
2022/08/20 06:36:45;;;;;;;45.35;24.42;;;;;;;19.10;88.44;101571.38;5073004;28;20040;-80
2022/08/20 06:39:13;;;;;;;40.33;24.48;;;;;;;19.12;88.23;101577.63;5073739;28;20028;-80
2022/08/20 06:41:39;;;;;;;44.70;25.30;;;;;;;19.17;88.48;101578.44;5073465;28;20372;-80
2022/08/20 06:44:08;;;;;;;38.67;24.48;;;;;;;19.11;88.10;101566.03;5055972;28;20121;-80
2022/08/20 06:46:35;;;;;;;37.80;22.17;;;;;;;19.31;87.60;101581.81;5073280;28;20025;-81
2022/08/20 06:49:02;;;;;;;43.08;26.40;;;;;;;19.29;87.76;101577.41;5073302;28;20055;-79
2022/08/20 06:51:28;;;;;;;42.63;24.13;;;;;;;19.44;88.15;101578.06;5073255;28;20043;-80
2022/08/20 06:53:53;;;;;;;44.63;25.55;;;;;;;19.47;88.10;101580.69;5073198;28;20030;-80
2022/08/20 06:56:19;;;;;;;44.38;24.80;;;;;;;19.49;87.83;101580.69;5072882;28;20127;-80
2022/08/20 06:58:44;;;;;;;39.05;25.58;;;;;;;19.54;88.65;101580.63;5072953;28;20028;-80
2022/08/20 07:01:11;;;;;;;46.75;25.95;;;;;;;19.60;87.76;101585.88;5073108;28;20107;-80
2022/08/20 07:03:38;;;;;;;42.92;25.35;;;;;;;19.63;87.93;101580.50;5073260;28;20466;-80
2022/08/20 07:06:03;;;;;;;38.42;24.23;;;;;;;19.79;87.84;101584.75;5055281;28;20035;-80
2022/08/20 07:08:29;;;;;;;41.30;25.17;;;;;;;19.82;86.85;101581.09;5072712;28;20388;-80
2022/08/20 07:10:54;;;;;;;41.03;23.17;;;;;;;19.76;86.12;101579.41;5073012;28;20135;-80
2022/08/20 07:13:20;;;;;;;37.10;24.15;;;;;;;19.81;86.18;101590.94;5073031;28;20068;-80
2022/08/20 07:15:45;;;;;;;43.50;24.48;;;;;;;19.77;86.63;101592.78;5073026;28;20370;-80
2022/08/20 07:18:12;;;;;;;39.72;22.70;;;;;;;19.66;86.70;101576.00;5072823;28;20405;-80
2022/08/20 07:20:39;;;;;;;44.53;24.08;;;;;;;19.76;87.47;101593.72;5072728;28;20032;-80
2022/08/20 07:23:07;;;;;;;36.63;24.60;;;;;;;19.77;87.10;101590.09;5072966;28;20115;-80
2022/08/20 07:25:33;;;;;;;43.92;24.25;;;;;;;19.73;87.17;101576.78;5072568;28;20083;-80
2022/08/20 07:28:01;;;;;;;38.10;23.33;;;;;;;19.91;86.88;101597.06;5072860;28;20028;-80
2022/08/20 07:33:13;;;;;;;33.22;21.10;;;;;;;19.92;86.42;101594.38;5073037;28;20051;-80
2022/08/20 07:35:39;;;;;;;31.02;19.05;;;;;;;20.02;85.69;101613.88;5072253;28;20028;-80
2022/08/20 07:38:06;;;;;;;33.40;19.17;;;;;;;19.96;85.79;101605.94;5072210;28;20400;-80
2022/08/20 07:40:33;;;;;;;33.42;18.63;;;;;;;20.04;85.79;101605.78;5072849;28;20032;-81
2022/08/20 07:43:01;;;;;;;26.63;17.33;;;;;;;20.20;84.98;101618.94;5072914;28;20024;-80
2022/08/20 07:45:28;;;;;;;28.75;18.40;;;;;;;20.21;84.64;101615.34;5072493;28;20062;-80
2022/08/20 07:47:54;;;;;;;29.65;18.63;;;;;;;20.26;84.44;101620.66;5072697;28;20473;-80
2022/08/20 07:50:23;;;;;;;28.70;18.42;;;;;;;20.38;84.32;101625.78;5054477;28;20041;-80
2022/08/20 07:52:52;;;;;;;27.10;17.40;;;;;;;20.69;82.43;101612.75;5072688;28;20028;-81
2022/08/20 07:55:19;;;;;;;27.13;17.17;;;;;;;21.04;80.45;101629.97;5072238;28;20121;-80
2022/08/20 07:57:47;;;;;;;26.20;18.67;;;;;;;21.46;80.13;101638.97;5072804;28;20029;-80
2022/08/20 08:00:13;;;;;;;27.58;17.38;;;;;;;21.69;79.25;101629.50;5072386;28;20139;-79
2022/08/20 08:02:39;;;;;;;21.95;15.32;;;;;;;21.70;78.23;101624.06;5072643;28;20024;-80
2022/08/20 08:05:06;;;;;;;21.77;15.02;;;;;;;21.75;77.57;101638.34;5054222;28;20139;-80
2022/08/20 08:07:32;;;;;;;22.65;13.95;;;;;;;21.70;76.21;101629.44;5072486;28;20043;-79
2022/08/20 08:10:00;;;;;;;19.80;14.52;;;;;;;21.80;75.87;101642.69;5054264;28;20136;-81
2022/08/20 08:12:34;;;;;;;21.13;14.93;;;;;;;22.03;74.79;101623.31;5072006;28;20036;-81
2022/08/20 08:15:00;;;;;;;19.15;12.88;;;;;;;22.34;74.25;101631.56;5072475;28;20033;-78
2022/08/20 08:17:27;;;;;;;24.52;12.73;;;;;;;22.67;72.82;101652.22;5072030;28;20043;-79
2022/08/20 08:19:52;;;;;;;23.48;13.70;;;;;;;22.57;72.27;101629.16;5072320;28;20150;-81
2022/08/20 08:22:18;;;;;;;22.48;13.55;;;;;;;22.64;71.25;101638.81;5072091;28;20039;-80
2022/08/20 08:24:48;;;;;;;20.02;13.90;;;;;;;22.60;70.70;101638.94;5072272;28;20044;-80
2022/08/20 08:27:17;;;;;;;20.13;13.55;;;;;;;22.60;71.80;101631.75;5055063;28;20028;-80
2022/08/20 08:29:43;;;;;;;20.30;11.80;;;;;;;22.57;70.12;101630.94;5072300;28;20036;-82
2022/08/20 08:32:08;;;;;;;16.77;11.27;;;;;;;22.58;68.30;101646.19;5072426;28;20391;-80
2022/08/20 08:34:35;;;;;;;23.35;11.18;;;;;;;22.56;68.62;101631.88;5072287;28;20039;-80
2022/08/20 08:37:02;;;;;;;17.45;12.07;;;;;;;22.72;68.88;101646.72;5071771;28;20393;-81
2022/08/20 08:39:31;;;;;;;18.05;11.82;;;;;;;23.08;68.38;101652.91;5072335;28;20036;-81
2022/08/20 08:42:02;;;;;;;16.52;9.32;;;;;;;23.48;65.54;101652.66;5072047;28;20028;-80
2022/08/20 08:44:37;;;;;;;16.17;9.15;;;;;;;23.74;66.67;101653.69;5072137;28;20032;-80
2022/08/20 08:47:36;;;;;;;18.02;10.48;;;;;;;23.99;66.15;101656.50;5056625;28;20139;-79
2022/08/20 08:50:04;;;;;;;15.15;8.30;;;;;;;23.93;60.42;101652.16;5056906;28;20040;-79
2022/08/20 08:52:35;;;;;;;14.32;8.27;;;;;;;24.09;61.23;101659.78;5075961;28;20028;-79
2022/08/20 08:55:04;;;;;;;14.55;8.43;;;;;;;24.28;60.75;101650.13;5057657;28;20359;-79
2022/08/20 08:57:31;;;;;;;15.35;7.78;;;;;;;24.65;60.60;101657.03;5057606;28;20074;-79
2022/08/20 09:00:00;;;;;;;15.63;6.82;;;;;;;24.82;59.50;101668.13;5075578;28;20104;-80
2022/08/20 09:02:29;;;;;;;16.08;7.25;;;;;;;24.94;59.65;101665.00;5076148;28;20051;-80
2022/08/20 09:04:58;;;;;;;17.75;8.80;;;;;;;25.17;57.13;101664.16;5076805;28;20037;-81
2022/08/20 09:07:31;;;;;;;16.20;9.10;;;;;;;25.25;58.19;101657.59;5075796;28;20058;-79
2022/08/20 09:09:57;;;;;;;15.20;8.52;;;;;;;25.10;56.73;101667.19;5076257;28;20473;-80
2022/08/20 09:12:26;;;;;;;16.02;7.50;;;;;;;25.39;57.58;101657.94;5075709;28;20469;-80
2022/08/20 09:14:52;;;;;;;14.15;8.40;;;;;;;25.55;57.03;101651.00;5075847;28;20044;-80
2022/08/20 09:17:20;;;;;;;14.35;7.13;;;;;;;25.78;55.84;101677.25;5075137;28;20032;-80
2022/08/20 09:19:46;;;;;;;15.25;6.43;;;;;;;25.66;53.83;101677.69;5075230;28;20043;-81
2022/08/20 09:22:20;;;;;;;17.08;6.80;;;;;;;25.73;55.89;101673.78;5057318;28;20037;-80
2022/08/20 09:24:45;;;;;;;15.48;6.78;;;;;;;25.94;54.22;101663.94;5075120;28;20056;-80
2022/08/20 09:27:11;;;;;;;13.88;6.13;;;;;;;26.27;52.80;101661.69;5075491;28;20103;-80
2022/08/20 09:29:37;;;;;;;11.70;6.75;;;;;;;26.43;50.82;101660.09;5074959;28;20496;-80
2022/08/20 09:32:09;;;;;;;18.13;7.32;;;;;;;26.75;52.73;101655.13;5075236;28;20033;-79
2022/08/20 09:34:41;;;;;;;15.38;6.78;;;;;;;26.88;52.00;101653.66;5074686;28;20103;-80
2022/08/20 09:37:07;;;;;;;16.33;7.45;;;;;;;26.91;52.51;101652.63;5074738;28;20028;-80
2022/08/20 09:39:32;;;;;;;13.90;6.60;;;;;;;27.31;50.76;101667.13;5074441;28;20032;-80
2022/08/20 09:42:31;;;;;;;13.25;6.38;;;;;;;27.35;51.60;101660.59;5074803;28;20032;-80
2022/08/20 09:44:58;;;;;;;13.00;6.65;;;;;;;26.99;48.99;101644.16;5020530;28;20048;-79
2022/08/20 09:47:24;;;;;;;14.70;6.72;;;;;;;27.31;48.08;101651.72;5074616;28;20462;-80
2022/08/20 09:49:49;;;;;;;14.13;7.10;;;;;;;27.33;48.13;101644.41;5074304;28;20431;-80
2022/08/20 09:52:38;;;;;;;13.82;5.80;;;;;;;27.53;51.34;101648.88;5074603;28;20052;-80
2022/08/20 09:55:11;;;;;;;9.23;4.22;;;;;;;27.74;51.38;101646.13;5056312;28;20029;-79
2022/08/20 09:57:37;;;;;;;10.23;4.00;;;;;;;27.82;46.88;101657.50;5074008;28;20024;-79
2022/08/20 10:00:10;;;;;;;10.93;3.28;;;;;;;27.27;43.05;101650.09;5056388;28;20036;-79
2022/08/20 10:02:36;;;;;;;7.60;3.25;;;;;;;27.58;42.69;101655.00;5074463;28;20348;-80
2022/08/20 10:05:02;;;;;;;12.70;3.83;;;;;;;27.72;39.42;101654.34;5074281;28;20037;-79
2022/08/20 10:07:27;;;;;;;11.18;3.80;;;;;;;27.63;40.67;101643.91;5074170;28;20032;-80
2022/08/20 10:09:53;;;;;;;10.80;4.85;;;;;;;27.74;43.29;101659.72;5074059;28;20075;-80
2022/08/20 10:12:18;;;;;;;10.63;3.90;;;;;;;27.97;42.31;101664.91;5073981;28;20120;-80
2022/08/20 10:14:44;;;;;;;10.50;3.88;;;;;;;27.98;42.70;101654.94;5074131;28;20064;-80
2022/08/20 10:17:09;;;;;;;10.40;3.30;;;;;;;28.38;39.77;101654.72;5074033;28;20040;-80
2022/08/20 10:19:34;;;;;;;15.50;3.90;;;;;;;28.27;43.12;101650.78;5073921;28;20438;-80
2022/08/20 10:22:00;;;;;;;11.32;4.03;;;;;;;28.58;41.18;101653.69;5073802;28;20127;-79
2022/08/20 10:24:27;;;;;;;12.55;3.75;;;;;;;28.79;41.48;101654.41;5073849;28;20026;-80
2022/08/20 10:26:57;;;;;;;11.70;3.80;;;;;;;28.84;41.47;101657.78;5074119;28;20044;-80
2022/08/20 10:29:23;;;;;;;9.77;3.90;;;;;;;28.97;41.09;101647.16;5073895;28;20024;-80
2022/08/20 10:31:49;;;;;;;13.38;3.72;;;;;;;29.06;40.74;101646.66;5073779;28;20028;-80
2022/08/20 10:34:14;;;;;;;14.02;4.30;;;;;;;29.28;38.68;101653.66;5073690;28;20123;-80
2022/08/20 10:36:41;;;;;;;10.00;4.30;;;;;;;29.29;39.21;101660.84;5073396;28;20469;-81
2022/08/20 10:39:06;;;;;;;11.30;3.78;;;;;;;29.33;39.93;101652.41;5073507;28;20043;-80
2022/08/20 10:41:31;;;;;;;10.55;4.00;;;;;;;29.23;40.13;101653.91;5055492;28;20032;-80
2022/08/20 10:43:57;;;;;;;11.70;4.25;;;;;;;28.93;40.36;101650.97;5073594;28;20075;-81
2022/08/20 10:46:22;;;;;;;12.88;3.95;;;;;;;28.69;40.67;101651.31;5073449;28;20397;-80
2022/08/20 10:48:47;;;;;;;9.07;3.40;;;;;;;28.19;40.57;101643.00;5073197;28;20103;-81
2022/08/20 10:51:13;;;;;;;12.38;3.20;;;;;;;27.99;40.42;101653.97;5055785;28;20508;-80
2022/08/20 10:53:38;;;;;;;10.02;3.50;;;;;;;27.70;38.78;101645.34;5073176;28;20470;-80
2022/08/20 10:56:04;;;;;;;11.10;3.30;;;;;;;27.62;38.86;101658.41;5072978;28;20028;-80
2022/08/20 10:58:30;;;;;;;10.25;3.17;;;;;;;27.75;40.25;101653.31;5073245;28;20123;-80
2022/08/20 11:00:55;;;;;;;9.38;3.42;;;;;;;27.71;40.62;101649.88;5055202;28;20111;-80
2022/08/20 11:03:21;;;;;;;11.60;3.47;;;;;;;27.87;40.64;101647.28;5073419;28;20478;-80
2022/08/20 11:05:46;;;;;;;10.13;3.20;;;;;;;28.04;39.60;101647.34;5073220;28;20036;-81
2022/08/20 11:08:12;;;;;;;11.10;3.22;;;;;;;28.26;39.45;101647.13;5054684;28;20060;-80
2022/08/20 11:10:38;;;;;;;10.52;3.80;;;;;;;28.44;37.70;101662.56;5072129;28;20139;-80
2022/08/20 11:13:06;;;;;;;8.77;3.47;;;;;;;28.55;39.45;101651.13;5073087;28;20063;-80
2022/08/20 11:15:35;;;;;;;12.57;3.67;;;;;;;28.46;38.29;101654.31;5072743;28;20032;-80
2022/08/20 11:18:00;;;;;;;9.25;3.10;;;;;;;28.88;38.33;101658.50;5072934;28;20086;-80
2022/08/20 11:20:26;;;;;;;10.95;3.00;;;;;;;29.06;37.61;101645.78;5073229;28;20033;-80